sensor_id;sensor_type;location;lat;lon;timestamp;temperature;humidity
77039;DHT22;65970;50.476;4.840;2023-06-22T00:01:35;26.00;19.00
77039;DHT22;65970;50.476;4.840;2023-06-22T00:06:35;25.90;18.60
77039;DHT22;65970;50.476;4.840;2023-06-22T00:11:37;25.90;18.70
77039;DHT22;65970;50.476;4.840;2023-06-22T00:16:37;25.80;18.70
77039;DHT22;65970;50.476;4.840;2023-06-22T00:21:38;25.80;18.70
77039;DHT22;65970;50.476;4.840;2023-06-22T00:26:38;25.70;18.80
77039;DHT22;65970;50.476;4.840;2023-06-22T00:31:39;25.70;18.80
77039;DHT22;65970;50.476;4.840;2023-06-22T00:36:39;25.60;18.80
77039;DHT22;65970;50.476;4.840;2023-06-22T00:41:40;25.60;18.90
77039;DHT22;65970;50.476;4.840;2023-06-22T00:46:40;25.60;18.90
77039;DHT22;65970;50.476;4.840;2023-06-22T00:51:41;25.60;18.90
77039;DHT22;65970;50.476;4.840;2023-06-22T00:56:41;25.50;18.90
77039;DHT22;65970;50.476;4.840;2023-06-22T01:01:42;25.50;19.00
77039;DHT22;65970;50.476;4.840;2023-06-22T01:06:54;25.40;19.00
77039;DHT22;65970;50.476;4.840;2023-06-22T01:12:02;25.40;19.00
77039;DHT22;65970;50.476;4.840;2023-06-22T01:17:05;25.30;19.00
77039;DHT22;65970;50.476;4.840;2023-06-22T01:22:07;25.30;19.00
77039;DHT22;65970;50.476;4.840;2023-06-22T01:32:40;25.20;19.10
77039;DHT22;65970;50.476;4.840;2023-06-22T01:37:41;25.20;19.10
77039;DHT22;65970;50.476;4.840;2023-06-22T01:42:43;25.10;19.20
77039;DHT22;65970;50.476;4.840;2023-06-22T01:47:44;25.10;19.20
77039;DHT22;65970;50.476;4.840;2023-06-22T01:52:44;25.00;19.30
77039;DHT22;65970;50.476;4.840;2023-06-22T01:57:45;25.00;19.20
77039;DHT22;65970;50.476;4.840;2023-06-22T02:03:05;24.90;19.30
77039;DHT22;65970;50.476;4.840;2023-06-22T02:08:15;24.90;18.50
77039;DHT22;65970;50.476;4.840;2023-06-22T02:13:18;24.90;19.30
77039;DHT22;65970;50.476;4.840;2023-06-22T02:18:19;24.90;19.40
77039;DHT22;65970;50.476;4.840;2023-06-22T02:23:20;24.80;19.30
77039;DHT22;65970;50.476;4.840;2023-06-22T02:28:20;24.80;19.30
77039;DHT22;65970;50.476;4.840;2023-06-22T02:33:21;24.70;19.30
77039;DHT22;65970;50.476;4.840;2023-06-22T02:38:21;24.70;19.30
77039;DHT22;65970;50.476;4.840;2023-06-22T02:43:22;24.70;19.40
77039;DHT22;65970;50.476;4.840;2023-06-22T02:48:22;24.60;19.40
77039;DHT22;65970;50.476;4.840;2023-06-22T02:53:23;24.60;19.40
77039;DHT22;65970;50.476;4.840;2023-06-22T02:58:23;24.60;19.40
77039;DHT22;65970;50.476;4.840;2023-06-22T03:03:24;24.60;19.60
77039;DHT22;65970;50.476;4.840;2023-06-22T03:08:24;24.50;19.60
77039;DHT22;65970;50.476;4.840;2023-06-22T03:13:27;24.50;19.60
77039;DHT22;65970;50.476;4.840;2023-06-22T03:18:27;24.40;19.60
77039;DHT22;65970;50.476;4.840;2023-06-22T03:23:28;24.50;19.80
77039;DHT22;65970;50.476;4.840;2023-06-22T03:28:28;24.40;19.70
77039;DHT22;65970;50.476;4.840;2023-06-22T03:33:29;24.40;19.70
77039;DHT22;65970;50.476;4.840;2023-06-22T03:38:29;24.40;19.80
77039;DHT22;65970;50.476;4.840;2023-06-22T03:43:30;24.30;19.70
77039;DHT22;65970;50.476;4.840;2023-06-22T03:48:30;24.30;19.80
77039;DHT22;65970;50.476;4.840;2023-06-22T03:53:31;24.20;19.80
77039;DHT22;65970;50.476;4.840;2023-06-22T03:58:32;24.20;19.90
77039;DHT22;65970;50.476;4.840;2023-06-22T04:03:32;24.10;20.00
77039;DHT22;65970;50.476;4.840;2023-06-22T04:08:33;24.10;19.90
77039;DHT22;65970;50.476;4.840;2023-06-22T04:13:33;24.10;20.00
77039;DHT22;65970;50.476;4.840;2023-06-22T04:18:34;24.10;19.90
77039;DHT22;65970;50.476;4.840;2023-06-22T04:23:34;24.10;20.00
77039;DHT22;65970;50.476;4.840;2023-06-22T04:28:35;24.00;20.00
77039;DHT22;65970;50.476;4.840;2023-06-22T04:33:35;24.00;19.90
77039;DHT22;65970;50.476;4.840;2023-06-22T04:38:36;23.90;20.00
77039;DHT22;65970;50.476;4.840;2023-06-22T04:43:36;23.90;20.10
77039;DHT22;65970;50.476;4.840;2023-06-22T04:48:37;23.90;20.10
77039;DHT22;65970;50.476;4.840;2023-06-22T04:53:37;23.90;20.20
77039;DHT22;65970;50.476;4.840;2023-06-22T04:58:38;23.90;20.20
77039;DHT22;65970;50.476;4.840;2023-06-22T05:03:38;23.90;20.20
77039;DHT22;65970;50.476;4.840;2023-06-22T05:08:39;23.80;20.10
77039;DHT22;65970;50.476;4.840;2023-06-22T05:13:40;23.80;20.20
77039;DHT22;65970;50.476;4.840;2023-06-22T05:18:40;23.80;20.10
77039;DHT22;65970;50.476;4.840;2023-06-22T05:23:41;23.80;20.20
77039;DHT22;65970;50.476;4.840;2023-06-22T05:28:41;23.80;20.20
77039;DHT22;65970;50.476;4.840;2023-06-22T05:33:43;23.70;20.20
77039;DHT22;65970;50.476;4.840;2023-06-22T05:38:44;23.70;20.20
77039;DHT22;65970;50.476;4.840;2023-06-22T05:43:44;23.70;20.10
77039;DHT22;65970;50.476;4.840;2023-06-22T05:48:45;23.70;20.00
77039;DHT22;65970;50.476;4.840;2023-06-22T05:53:45;23.70;20.00
77039;DHT22;65970;50.476;4.840;2023-06-22T05:58:47;23.70;20.10
77039;DHT22;65970;50.476;4.840;2023-06-22T06:03:48;23.70;20.20
77039;DHT22;65970;50.476;4.840;2023-06-22T06:08:48;23.70;20.20
77039;DHT22;65970;50.476;4.840;2023-06-22T06:13:49;23.70;20.30
77039;DHT22;65970;50.476;4.840;2023-06-22T06:18:49;23.70;20.20
77039;DHT22;65970;50.476;4.840;2023-06-22T06:23:50;23.70;20.20
77039;DHT22;65970;50.476;4.840;2023-06-22T06:28:50;23.70;20.40
77039;DHT22;65970;50.476;4.840;2023-06-22T06:33:51;23.70;20.20
77039;DHT22;65970;50.476;4.840;2023-06-22T06:38:51;23.70;20.50
77039;DHT22;65970;50.476;4.840;2023-06-22T06:43:52;23.70;20.60
77039;DHT22;65970;50.476;4.840;2023-06-22T06:48:52;23.70;20.50
77039;DHT22;65970;50.476;4.840;2023-06-22T06:53:53;23.70;20.40
77039;DHT22;65970;50.476;4.840;2023-06-22T06:58:54;23.60;20.40
77039;DHT22;65970;50.476;4.840;2023-06-22T07:03:54;23.60;20.50
77039;DHT22;65970;50.476;4.840;2023-06-22T07:08:55;23.60;20.30
77039;DHT22;65970;50.476;4.840;2023-06-22T07:13:56;23.70;20.20
77039;DHT22;65970;50.476;4.840;2023-06-22T07:18:56;23.70;20.50
77039;DHT22;65970;50.476;4.840;2023-06-22T07:23:57;23.70;20.60
77039;DHT22;65970;50.476;4.840;2023-06-22T07:28:57;23.70;20.50
77039;DHT22;65970;50.476;4.840;2023-06-22T07:33:58;23.70;20.50
77039;DHT22;65970;50.476;4.840;2023-06-22T07:38:58;23.80;20.50
77039;DHT22;65970;50.476;4.840;2023-06-22T07:43:59;23.80;20.30
77039;DHT22;65970;50.476;4.840;2023-06-22T07:48:59;23.80;20.20
77039;DHT22;65970;50.476;4.840;2023-06-22T07:54:00;23.90;21.10
77039;DHT22;65970;50.476;4.840;2023-06-22T07:59:00;23.90;20.40
77039;DHT22;65970;50.476;4.840;2023-06-22T08:04:01;23.90;20.90
77039;DHT22;65970;50.476;4.840;2023-06-22T08:09:01;24.00;20.70
77039;DHT22;65970;50.476;4.840;2023-06-22T08:14:02;24.00;21.40
77039;DHT22;65970;50.476;4.840;2023-06-22T08:19:03;24.00;21.80
77039;DHT22;65970;50.476;4.840;2023-06-22T08:24:03;24.00;22.70
77039;DHT22;65970;50.476;4.840;2023-06-22T08:29:04;24.10;22.30
77039;DHT22;65970;50.476;4.840;2023-06-22T08:34:05;24.10;22.80
77039;DHT22;65970;50.476;4.840;2023-06-22T08:39:05;24.10;23.00
77039;DHT22;65970;50.476;4.840;2023-06-22T08:44:06;24.10;23.00
77039;DHT22;65970;50.476;4.840;2023-06-22T08:49:07;24.10;23.20
77039;DHT22;65970;50.476;4.840;2023-06-22T08:54:07;24.10;23.10
77039;DHT22;65970;50.476;4.840;2023-06-22T08:59:08;24.10;23.20
77039;DHT22;65970;50.476;4.840;2023-06-22T09:04:08;24.00;23.40
77039;DHT22;65970;50.476;4.840;2023-06-22T09:09:09;24.00;23.40
77039;DHT22;65970;50.476;4.840;2023-06-22T09:14:10;24.00;23.00
77039;DHT22;65970;50.476;4.840;2023-06-22T09:19:11;24.00;23.10
77039;DHT22;65970;50.476;4.840;2023-06-22T09:24:11;24.00;23.30
77039;DHT22;65970;50.476;4.840;2023-06-22T09:29:12;24.00;23.20
77039;DHT22;65970;50.476;4.840;2023-06-22T09:34:13;23.90;23.40
77039;DHT22;65970;50.476;4.840;2023-06-22T09:39:13;23.90;24.80
77039;DHT22;65970;50.476;4.840;2023-06-22T09:44:14;23.90;23.80
77039;DHT22;65970;50.476;4.840;2023-06-22T09:49:14;23.90;23.90
77039;DHT22;65970;50.476;4.840;2023-06-22T09:54:15;23.90;24.00
77039;DHT22;65970;50.476;4.840;2023-06-22T09:59:15;23.80;23.50
77039;DHT22;65970;50.476;4.840;2023-06-22T10:04:16;23.80;23.90
77039;DHT22;65970;50.476;4.840;2023-06-22T10:09:16;23.80;24.10
77039;DHT22;65970;50.476;4.840;2023-06-22T10:14:17;23.70;24.60
77039;DHT22;65970;50.476;4.840;2023-06-22T10:19:18;23.70;24.20
77039;DHT22;65970;50.476;4.840;2023-06-22T10:24:18;23.70;23.60
77039;DHT22;65970;50.476;4.840;2023-06-22T10:29:19;23.70;24.70
77039;DHT22;65970;50.476;4.840;2023-06-22T10:34:20;23.70;24.40
77039;DHT22;65970;50.476;4.840;2023-06-22T10:39:21;23.70;25.40
77039;DHT22;65970;50.476;4.840;2023-06-22T10:44:21;23.70;25.00
77039;DHT22;65970;50.476;4.840;2023-06-22T10:49:22;23.80;25.60
77039;DHT22;65970;50.476;4.840;2023-06-22T10:54:22;23.80;25.40
77039;DHT22;65970;50.476;4.840;2023-06-22T10:59:23;23.80;26.00
77039;DHT22;65970;50.476;4.840;2023-06-22T11:04:23;23.80;26.10
77039;DHT22;65970;50.476;4.840;2023-06-22T11:09:24;23.80;26.30
77039;DHT22;65970;50.476;4.840;2023-06-22T11:14:25;23.80;25.50
77039;DHT22;65970;50.476;4.840;2023-06-22T11:19:25;23.80;26.50
77039;DHT22;65970;50.476;4.840;2023-06-22T11:24:26;23.80;26.20
77039;DHT22;65970;50.476;4.840;2023-06-22T11:29:26;23.80;25.70
77039;DHT22;65970;50.476;4.840;2023-06-22T11:34:27;23.80;26.40
77039;DHT22;65970;50.476;4.840;2023-06-22T11:39:27;23.80;26.20
77039;DHT22;65970;50.476;4.840;2023-06-22T11:44:28;23.80;26.50
77039;DHT22;65970;50.476;4.840;2023-06-22T11:49:29;23.80;26.70
77039;DHT22;65970;50.476;4.840;2023-06-22T11:54:30;23.70;27.00
77039;DHT22;65970;50.476;4.840;2023-06-22T11:59:30;23.70;26.40
77039;DHT22;65970;50.476;4.840;2023-06-22T12:04:31;23.70;26.60
77039;DHT22;65970;50.476;4.840;2023-06-22T12:09:31;23.70;25.00
77039;DHT22;65970;50.476;4.840;2023-06-22T12:14:32;23.70;26.40
77039;DHT22;65970;50.476;4.840;2023-06-22T12:19:32;23.60;26.50
77039;DHT22;65970;50.476;4.840;2023-06-22T12:24:33;23.60;26.40
77039;DHT22;65970;50.476;4.840;2023-06-22T12:29:33;23.60;26.60
77039;DHT22;65970;50.476;4.840;2023-06-22T12:34:34;23.50;26.60
77039;DHT22;65970;50.476;4.840;2023-06-22T12:39:35;23.50;26.50
77039;DHT22;65970;50.476;4.840;2023-06-22T12:44:36;23.50;26.70
77039;DHT22;65970;50.476;4.840;2023-06-22T12:49:37;23.50;26.80
77039;DHT22;65970;50.476;4.840;2023-06-22T12:54:38;23.50;26.70
77039;DHT22;65970;50.476;4.840;2023-06-22T12:59:38;23.40;26.60
77039;DHT22;65970;50.476;4.840;2023-06-22T13:04:39;23.40;26.80
77039;DHT22;65970;50.476;4.840;2023-06-22T13:09:39;23.30;26.70
77039;DHT22;65970;50.476;4.840;2023-06-22T13:14:40;23.30;27.10
77039;DHT22;65970;50.476;4.840;2023-06-22T13:19:41;23.30;27.10
77039;DHT22;65970;50.476;4.840;2023-06-22T13:24:41;23.20;27.00
77039;DHT22;65970;50.476;4.840;2023-06-22T13:29:42;23.20;26.80
77039;DHT22;65970;50.476;4.840;2023-06-22T13:34:43;23.20;26.80
77039;DHT22;65970;50.476;4.840;2023-06-22T13:39:44;23.20;27.10
77039;DHT22;65970;50.476;4.840;2023-06-22T13:44:44;23.10;27.30
77039;DHT22;65970;50.476;4.840;2023-06-22T13:49:45;23.10;27.40
77039;DHT22;65970;50.476;4.840;2023-06-22T13:54:45;23.10;28.00
77039;DHT22;65970;50.476;4.840;2023-06-22T13:59:46;23.10;28.10
77039;DHT22;65970;50.476;4.840;2023-06-22T14:04:46;23.00;27.30
77039;DHT22;65970;50.476;4.840;2023-06-22T14:09:47;23.00;27.70
77039;DHT22;65970;50.476;4.840;2023-06-22T14:14:48;23.00;27.60
77039;DHT22;65970;50.476;4.840;2023-06-22T14:19:48;23.00;27.70
77039;DHT22;65970;50.476;4.840;2023-06-22T14:24:49;23.00;27.40
77039;DHT22;65970;50.476;4.840;2023-06-22T14:29:50;22.90;27.80
77039;DHT22;65970;50.476;4.840;2023-06-22T14:34:50;22.90;27.70
77039;DHT22;65970;50.476;4.840;2023-06-22T14:39:51;22.90;27.70
77039;DHT22;65970;50.476;4.840;2023-06-22T14:44:51;22.90;28.00
77039;DHT22;65970;50.476;4.840;2023-06-22T14:49:52;22.90;28.00
77039;DHT22;65970;50.476;4.840;2023-06-22T14:54:53;22.90;27.90
77039;DHT22;65970;50.476;4.840;2023-06-22T14:59:53;22.80;27.90
77039;DHT22;65970;50.476;4.840;2023-06-22T15:04:54;22.90;28.20
77039;DHT22;65970;50.476;4.840;2023-06-22T15:09:54;22.80;28.50
77039;DHT22;65970;50.476;4.840;2023-06-22T15:14:55;22.80;28.40
77039;DHT22;65970;50.476;4.840;2023-06-22T15:19:57;22.80;28.10
77039;DHT22;65970;50.476;4.840;2023-06-22T15:24:57;22.80;28.40
77039;DHT22;65970;50.476;4.840;2023-06-22T15:29:58;22.80;28.20
77039;DHT22;65970;50.476;4.840;2023-06-22T15:34:58;22.80;28.70
77039;DHT22;65970;50.476;4.840;2023-06-22T15:39:59;22.80;28.80
77039;DHT22;65970;50.476;4.840;2023-06-22T15:45:00;22.80;28.10
77039;DHT22;65970;50.476;4.840;2023-06-22T15:50:00;22.80;28.80
77039;DHT22;65970;50.476;4.840;2023-06-22T15:55:01;22.70;29.00
77039;DHT22;65970;50.476;4.840;2023-06-22T16:00:01;22.70;28.50
77039;DHT22;65970;50.476;4.840;2023-06-22T16:05:02;22.70;28.80
77039;DHT22;65970;50.476;4.840;2023-06-22T16:10:03;22.70;28.90
77039;DHT22;65970;50.476;4.840;2023-06-22T16:15:05;22.70;28.80
77039;DHT22;65970;50.476;4.840;2023-06-22T16:20:06;22.70;28.90
77039;DHT22;65970;50.476;4.840;2023-06-22T16:25:07;22.70;28.20
77039;DHT22;65970;50.476;4.840;2023-06-22T16:30:08;22.70;28.50
77039;DHT22;65970;50.476;4.840;2023-06-22T16:35:09;22.70;28.70
77039;DHT22;65970;50.476;4.840;2023-06-22T16:40:09;22.70;28.60
77039;DHT22;65970;50.476;4.840;2023-06-22T16:45:13;22.70;28.30
77039;DHT22;65970;50.476;4.840;2023-06-22T16:50:14;22.60;28.00
77039;DHT22;65970;50.476;4.840;2023-06-22T16:55:14;22.60;28.30
77039;DHT22;65970;50.476;4.840;2023-06-22T17:00:15;22.60;28.20
77039;DHT22;65970;50.476;4.840;2023-06-22T17:05:16;22.60;28.00
77039;DHT22;65970;50.476;4.840;2023-06-22T17:10:17;22.60;27.80
77039;DHT22;65970;50.476;4.840;2023-06-22T17:15:21;22.60;28.20
77039;DHT22;65970;50.476;4.840;2023-06-22T17:20:22;22.50;27.20
77039;DHT22;65970;50.476;4.840;2023-06-22T17:25:24;22.50;28.70
77039;DHT22;65970;50.476;4.840;2023-06-22T17:30:28;22.60;28.40
77039;DHT22;65970;50.476;4.840;2023-06-22T17:35:32;22.60;28.20
77039;DHT22;65970;50.476;4.840;2023-06-22T17:40:32;22.50;28.70
77039;DHT22;65970;50.476;4.840;2023-06-22T17:45:40;22.50;28.40
77039;DHT22;65970;50.476;4.840;2023-06-22T17:50:42;22.50;29.00
77039;DHT22;65970;50.476;4.840;2023-06-22T17:55:42;22.50;29.10
77039;DHT22;65970;50.476;4.840;2023-06-22T18:00:43;22.40;29.20
77039;DHT22;65970;50.476;4.840;2023-06-22T18:05:46;22.40;29.70
77039;DHT22;65970;50.476;4.840;2023-06-22T18:10:47;22.40;28.70
77039;DHT22;65970;50.476;4.840;2023-06-22T18:15:49;22.40;29.10
77039;DHT22;65970;50.476;4.840;2023-06-22T18:20:50;22.40;29.40
77039;DHT22;65970;50.476;4.840;2023-06-22T18:25:51;22.40;29.10
77039;DHT22;65970;50.476;4.840;2023-06-22T18:30:53;22.40;29.20
77039;DHT22;65970;50.476;4.840;2023-06-22T18:35:55;22.40;29.50
77039;DHT22;65970;50.476;4.840;2023-06-22T18:40:56;22.30;29.20
77039;DHT22;65970;50.476;4.840;2023-06-22T18:46:32;22.30;29.20
77039;DHT22;65970;50.476;4.840;2023-06-22T18:51:56;22.30;29.30
77039;DHT22;65970;50.476;4.840;2023-06-22T18:56:57;22.30;29.50
77039;DHT22;65970;50.476;4.840;2023-06-22T19:02:01;22.30;29.20
77039;DHT22;65970;50.476;4.840;2023-06-22T19:07:01;22.30;29.70
77039;DHT22;65970;50.476;4.840;2023-06-22T19:17:19;22.20;28.80
77039;DHT22;65970;50.476;4.840;2023-06-22T19:22:19;22.20;28.60
77039;DHT22;65970;50.476;4.840;2023-06-22T19:27:29;22.20;28.70
77039;DHT22;65970;50.476;4.840;2023-06-22T19:32:30;22.20;28.70
77039;DHT22;65970;50.476;4.840;2023-06-22T19:37:30;22.20;28.80
77039;DHT22;65970;50.476;4.840;2023-06-22T19:42:31;22.20;28.60
77039;DHT22;65970;50.476;4.840;2023-06-22T19:47:31;22.20;28.50
77039;DHT22;65970;50.476;4.840;2023-06-22T19:52:36;22.10;28.80
77039;DHT22;65970;50.476;4.840;2023-06-22T19:57:37;22.10;28.50
77039;DHT22;65970;50.476;4.840;2023-06-22T20:02:44;22.10;28.80
77039;DHT22;65970;50.476;4.840;2023-06-22T20:07:45;22.10;28.60
77039;DHT22;65970;50.476;4.840;2023-06-22T20:12:52;22.10;28.20
77039;DHT22;65970;50.476;4.840;2023-06-22T20:18:03;22.10;28.20
77039;DHT22;65970;50.476;4.840;2023-06-22T20:23:05;22.10;28.40
77039;DHT22;65970;50.476;4.840;2023-06-22T20:28:16;22.00;27.80
77039;DHT22;65970;50.476;4.840;2023-06-22T20:33:17;22.00;27.80
77039;DHT22;65970;50.476;4.840;2023-06-22T20:38:18;22.00;28.00
77039;DHT22;65970;50.476;4.840;2023-06-22T20:43:18;21.90;27.40
77039;DHT22;65970;50.476;4.840;2023-06-22T20:48:19;21.90;27.80
77039;DHT22;65970;50.476;4.840;2023-06-22T20:53:20;21.90;27.80
77039;DHT22;65970;50.476;4.840;2023-06-22T20:58:21;21.90;27.60
77039;DHT22;65970;50.476;4.840;2023-06-22T21:03:21;21.90;27.50
77039;DHT22;65970;50.476;4.840;2023-06-22T21:08:22;21.90;27.50
77039;DHT22;65970;50.476;4.840;2023-06-22T21:13:22;21.90;27.60
77039;DHT22;65970;50.476;4.840;2023-06-22T21:18:23;21.80;27.60
77039;DHT22;65970;50.476;4.840;2023-06-22T21:23:23;21.80;27.20
77039;DHT22;65970;50.476;4.840;2023-06-22T21:28:24;21.80;27.30
77039;DHT22;65970;50.476;4.840;2023-06-22T21:33:24;21.80;27.60
77039;DHT22;65970;50.476;4.840;2023-06-22T21:38:25;21.80;27.40
77039;DHT22;65970;50.476;4.840;2023-06-22T21:43:25;21.80;27.50
77039;DHT22;65970;50.476;4.840;2023-06-22T21:48:26;21.80;27.10
77039;DHT22;65970;50.476;4.840;2023-06-22T21:53:26;21.80;27.40
77039;DHT22;65970;50.476;4.840;2023-06-22T21:58:27;21.70;27.30
77039;DHT22;65970;50.476;4.840;2023-06-22T22:03:28;21.70;27.00
77039;DHT22;65970;50.476;4.840;2023-06-22T22:08:28;21.70;27.00
77039;DHT22;65970;50.476;4.840;2023-06-22T22:13:29;21.70;27.40
77039;DHT22;65970;50.476;4.840;2023-06-22T22:18:29;21.70;27.20
77039;DHT22;65970;50.476;4.840;2023-06-22T22:23:30;21.70;27.50
77039;DHT22;65970;50.476;4.840;2023-06-22T22:28:30;21.70;27.30
77039;DHT22;65970;50.476;4.840;2023-06-22T22:33:31;21.70;27.30
77039;DHT22;65970;50.476;4.840;2023-06-22T22:38:31;21.60;27.50
77039;DHT22;65970;50.476;4.840;2023-06-22T22:43:32;21.70;27.40
77039;DHT22;65970;50.476;4.840;2023-06-22T22:48:32;21.60;27.60
77039;DHT22;65970;50.476;4.840;2023-06-22T22:53:33;21.60;27.60
77039;DHT22;65970;50.476;4.840;2023-06-22T22:58:34;21.60;27.50
77039;DHT22;65970;50.476;4.840;2023-06-22T23:03:34;21.60;27.40
77039;DHT22;65970;50.476;4.840;2023-06-22T23:08:35;21.60;27.60
77039;DHT22;65970;50.476;4.840;2023-06-22T23:13:35;21.60;27.70
77039;DHT22;65970;50.476;4.840;2023-06-22T23:18:36;21.60;27.50
77039;DHT22;65970;50.476;4.840;2023-06-22T23:23:36;21.60;27.50
77039;DHT22;65970;50.476;4.840;2023-06-22T23:28:37;21.50;27.20
77039;DHT22;65970;50.476;4.840;2023-06-22T23:33:37;21.50;27.50
77039;DHT22;65970;50.476;4.840;2023-06-22T23:38:38;21.50;27.50
77039;DHT22;65970;50.476;4.840;2023-06-22T23:43:38;21.50;27.40
77039;DHT22;65970;50.476;4.840;2023-06-22T23:48:39;21.50;27.00
77039;DHT22;65970;50.476;4.840;2023-06-22T23:53:40;21.50;27.00
77039;DHT22;65970;50.476;4.840;2023-06-22T23:58:41;21.50;27.10
